Time;durP1;ratioP1;P1;durP2;ratioP2;P2;SDS_P1;SDS_P2;PMS_P1;PMS_P2;Temp;Humidity;BMP_temperature;BMP_pressure;BME280_temperature;BME280_humidity;BME280_pressure;Samples;Min_cycle;Max_cycle;Signal;HPM_P1;HPM_P2
2023/03/09 00:02:02;;;;;;;23.60;11.20;;;;;;;6.24;100.00;99916.28;104686;1304;26532;-69
2023/03/09 00:04:31;;;;;;;23.40;11.90;;;;;;;6.23;100.00;99918.41;104632;1304;24054;-68
2023/03/09 00:07:00;;;;;;;23.20;11.30;;;;;;;6.22;100.00;99922.77;104685;1304;25329;-68
2023/03/09 00:09:30;;;;;;;22.40;11.30;;;;;;;6.20;100.00;99924.36;104752;1304;26557;-67
2023/03/09 00:11:58;;;;;;;21.20;9.40;;;;;;;6.20;100.00;99924.80;104687;1304;25284;-68
2023/03/09 00:14:34;;;;;;;23.10;10.90;;;;;;;6.21;100.00;99921.30;104799;1304;25373;-68
2023/03/09 00:17:03;;;;;;;20.80;8.30;;;;;;;6.22;100.00;99919.91;104711;1304;22555;-68
2023/03/09 00:19:31;;;;;;;25.50;12.20;;;;;;;6.22;100.00;99919.88;104711;1304;26748;-68
2023/03/09 00:22:02;;;;;;;25.80;12.20;;;;;;;6.23;100.00;99918.02;104781;1304;25297;-69
2023/03/09 00:24:32;;;;;;;24.20;11.60;;;;;;;6.24;100.00;99917.82;104754;1304;26537;-69
2023/03/09 00:27:03;;;;;;;26.60;13.30;;;;;;;6.20;100.00;99904.89;104709;1305;25608;-70
2023/03/09 00:29:32;;;;;;;29.50;14.10;;;;;;;6.17;100.00;99901.39;104708;1305;25461;-68
2023/03/09 00:32:04;;;;;;;25.20;12.60;;;;;;;6.15;100.00;99900.20;104697;1304;26678;-68
2023/03/09 00:34:33;;;;;;;25.20;12.00;;;;;;;6.16;100.00;99900.52;104640;1305;22678;-68
2023/03/09 00:37:01;;;;;;;25.60;13.00;;;;;;;6.14;100.00;99902.95;104639;1304;22552;-67
2023/03/09 00:39:31;;;;;;;23.30;12.00;;;;;;;6.13;100.00;99903.27;104540;1305;22564;-67
2023/03/09 06:04:12;;;;;;;36.70;16.20;;;;;;;5.53;100.00;99626.71;105588;1303;558385;-74
2023/03/09 06:06:45;;;;;;;43.00;18.90;;;;;;;5.78;100.00;99682.54;107006;1287;177805;-75
2023/03/09 06:09:14;;;;;;;38.00;17.30;;;;;;;5.88;100.00;99693.70;106754;1286;22604;-74
2023/03/09 06:11:44;;;;;;;38.60;17.10;;;;;;;5.94;100.00;99698.76;107999;1276;25439;-76
2023/03/09 06:14:13;;;;;;;42.90;19.40;;;;;;;5.96;100.00;99707.30;107664;1276;23764;-73
2023/03/09 06:16:43;;;;;;;37.80;18.60;;;;;;;6.01;100.00;99703.10;107458;1276;22475;-75
2023/03/09 06:19:13;;;;;;;41.50;19.10;;;;;;;6.05;100.00;99709.46;107519;1276;22617;-74
2023/03/09 06:21:43;;;;;;;39.90;19.70;;;;;;;6.08;100.00;99722.24;107552;1276;26648;-75
2023/03/09 06:24:13;;;;;;;41.00;19.30;;;;;;;6.13;100.00;99727.30;107574;1276;22645;-75
2023/03/09 06:26:42;;;;;;;36.10;17.00;;;;;;;6.18;100.00;99739.68;107527;1276;23809;-75
2023/03/09 06:29:13;;;;;;;40.30;20.00;;;;;;;6.17;100.00;99745.38;107561;1276;26028;-73
2023/03/09 06:31:45;;;;;;;37.30;18.10;;;;;;;6.14;100.00;99739.92;107831;1276;26515;-76
2023/03/09 06:34:14;;;;;;;34.00;16.60;;;;;;;6.13;100.00;99740.55;107775;1276;22576;-77
2023/03/09 06:36:48;;;;;;;36.00;16.70;;;;;;;6.13;100.00;99734.42;108230;1276;22530;-74
2023/03/09 06:39:19;;;;;;;30.90;15.50;;;;;;;6.16;100.00;99732.59;108399;1254;22545;-78
2023/03/09 06:41:54;;;;;;;34.60;15.60;;;;;;;6.20;100.00;99728.12;109099;1275;22463;-76
2023/03/09 06:44:45;;;;;;;41.30;17.70;;;;;;;6.19;100.00;99728.01;108214;1275;25415;-74
2023/03/09 06:47:15;;;;;;;36.20;17.80;;;;;;;6.21;100.00;99730.85;108359;1275;22480;-77
2023/03/09 06:49:46;;;;;;;36.00;16.40;;;;;;;6.22;100.00;99735.59;108245;1275;22516;-77
2023/03/09 06:52:29;;;;;;;35.70;17.20;;;;;;;6.24;100.00;99734.45;107918;1275;26697;-77
2023/03/09 06:54:58;;;;;;;38.30;17.80;;;;;;;6.28;100.00;99736.77;108355;1275;22506;-74
2023/03/09 06:57:43;;;;;;;37.50;17.60;;;;;;;6.35;100.00;99722.71;108488;1275;25423;-74
2023/03/09 07:00:17;;;;;;;38.00;16.50;;;;;;;6.39;100.00;99716.48;108123;1275;24061;-76
2023/03/09 07:02:48;;;;;;;35.90;18.20;;;;;;;6.43;100.00;99712.72;107634;1275;25310;-73
2023/03/09 07:05:16;;;;;;;32.30;16.10;;;;;;;6.47;100.00;99712.88;107896;1275;22518;-74
2023/03/09 07:07:48;;;;;;;32.20;17.30;;;;;;;6.50;100.00;99706.31;107952;1272;24349;-74
2023/03/09 07:10:18;;;;;;;40.50;17.60;;;;;;;6.54;100.00;99707.18;107748;1275;23784;-74
2023/03/09 07:12:48;;;;;;;31.50;15.50;;;;;;;6.56;100.00;99699.39;107772;1275;26494;-74
2023/03/09 07:15:18;;;;;;;32.10;14.80;;;;;;;6.57;100.00;99696.47;107754;1275;23631;-74
2023/03/09 07:17:46;;;;;;;35.40;15.10;;;;;;;6.64;100.00;99684.85;107736;1269;24356;-75
2023/03/09 07:20:16;;;;;;;28.50;14.40;;;;;;;6.67;100.00;99684.98;107561;1275;26519;-74
2023/03/09 07:22:45;;;;;;;34.40;16.00;;;;;;;6.68;100.00;99682.30;107730;1270;25324;-75
2023/03/09 07:25:16;;;;;;;29.20;15.30;;;;;;;6.73;100.00;99683.92;107758;1272;26480;-73
2023/03/09 07:27:45;;;;;;;32.60;14.90;;;;;;;6.80;100.00;99674.08;108008;1275;22774;-73
2023/03/09 07:30:15;;;;;;;32.50;15.70;;;;;;;6.88;100.00;99668.16;107111;1275;25876;-72
2023/03/09 07:32:45;;;;;;;34.60;16.80;;;;;;;6.93;100.00;99663.35;107077;1275;22650;-69
2023/03/09 07:35:14;;;;;;;31.80;16.20;;;;;;;7.00;100.00;99655.54;107061;1272;25427;-70
2023/03/09 07:37:45;;;;;;;30.10;15.40;;;;;;;7.08;100.00;99651.56;107015;1275;23893;-72
2023/03/09 07:40:13;;;;;;;27.50;15.20;;;;;;;7.15;100.00;99639.30;106978;1268;22655;-69
2023/03/09 07:42:49;;;;;;;29.80;15.70;;;;;;;7.22;100.00;99633.42;107105;1269;22526;-68
2023/03/09 07:45:28;;;;;;;26.90;14.40;;;;;;;7.32;100.00;99610.15;108104;1270;24225;-78
2023/03/09 07:47:57;;;;;;;29.70;15.50;;;;;;;7.41;100.00;99595.91;107928;1275;23232;-78
2023/03/09 07:50:26;;;;;;;30.30;15.70;;;;;;;7.46;100.00;99577.46;108199;1269;22550;-78
2023/03/09 07:52:55;;;;;;;31.10;15.00;;;;;;;7.57;100.00;99556.29;108312;1275;22531;-76
2023/03/09 07:55:26;;;;;;;29.90;16.10;;;;;;;7.77;100.00;99534.77;107856;1271;26723;-70
2023/03/09 07:57:56;;;;;;;34.50;16.30;;;;;;;7.95;100.00;99520.09;107219;1268;23292;-69
2023/03/09 08:00:27;;;;;;;29.00;15.30;;;;;;;7.96;100.00;99504.64;107719;1270;22524;-76
2023/03/09 08:02:56;;;;;;;32.30;16.10;;;;;;;7.97;100.00;99474.73;108345;1268;23097;-78
2023/03/09 08:05:25;;;;;;;28.80;15.30;;;;;;;8.01;100.00;99459.35;108452;1271;22546;-78
2023/03/09 08:07:54;;;;;;;32.30;15.90;;;;;;;8.09;100.00;99441.73;108290;1271;22867;-76
2023/03/09 08:10:23;;;;;;;28.70;16.40;;;;;;;8.25;100.00;99430.91;108033;1275;25953;-75
2023/03/09 08:12:55;;;;;;;31.70;15.10;;;;;;;8.37;100.00;99428.60;108092;1275;25423;-76
2023/03/09 08:15:25;;;;;;;30.40;13.70;;;;;;;8.45;100.00;99431.27;107875;1275;22483;-76
2023/03/09 08:17:55;;;;;;;25.20;13.30;;;;;;;8.66;100.00;99412.91;107947;1275;25953;-77
2023/03/09 08:20:24;;;;;;;28.10;13.80;;;;;;;8.95;100.00;99406.64;107848;1275;22527;-76
2023/03/09 08:22:52;;;;;;;26.80;13.30;;;;;;;9.26;100.00;99403.73;107836;1275;22523;-75
2023/03/09 08:25:21;;;;;;;25.70;13.60;;;;;;;9.57;100.00;99393.09;108143;1275;22451;-77
2023/03/09 08:27:51;;;;;;;26.50;13.80;;;;;;;10.00;100.00;99373.92;107707;1275;22524;-77
2023/03/09 08:30:21;;;;;;;28.20;14.70;;;;;;;10.21;100.00;99359.60;107723;1275;22528;-77
2023/03/09 08:32:50;;;;;;;26.20;13.30;;;;;;;10.36;100.00;99337.30;107516;1275;22580;-75
2023/03/09 08:35:21;;;;;;;26.90;14.30;;;;;;;10.53;100.00;99330.19;107350;1275;24241;-76
2023/03/09 08:37:51;;;;;;;27.60;14.90;;;;;;;10.58;100.00;99347.89;107251;1275;25248;-74
2023/03/09 08:40:20;;;;;;;26.30;14.40;;;;;;;10.65;100.00;99383.83;107467;1271;25443;-74
2023/03/09 08:42:49;;;;;;;26.30;13.20;;;;;;;10.67;100.00;99408.11;107537;1272;24333;-75
2023/03/09 08:45:18;;;;;;;22.80;13.10;;;;;;;10.76;100.00;99403.19;107507;1271;22466;-76
2023/03/09 08:47:47;;;;;;;24.90;12.90;;;;;;;11.00;100.00;99393.58;107563;1270;25251;-76
2023/03/09 08:50:15;;;;;;;25.30;13.10;;;;;;;11.15;100.00;99390.34;107802;1275;22491;-74
2023/03/09 08:52:44;;;;;;;24.70;13.00;;;;;;;11.30;100.00;99394.58;106694;1275;1002901;-74
2023/03/09 08:55:16;;;;;;;24.60;13.80;;;;;;;11.54;100.00;99418.16;107762;1275;25954;-74
2023/03/09 08:57:45;;;;;;;28.10;13.50;;;;;;;11.76;100.00;99431.48;107807;1272;25423;-78
2023/03/09 09:00:17;;;;;;;26.10;13.30;;;;;;;12.01;100.00;99442.83;107918;1270;23756;-77
2023/03/09 09:02:47;;;;;;;27.50;17.10;;;;;;;12.19;100.00;99461.32;107976;1268;25433;-79
2023/03/09 09:05:17;;;;;;;25.40;13.20;;;;;;;12.37;100.00;99476.73;107819;1271;22474;-78
2023/03/09 09:07:50;;;;;;;26.60;13.60;;;;;;;12.66;100.00;99482.23;108259;1275;25868;-78
2023/03/09 09:10:20;;;;;;;22.20;11.60;;;;;;;12.76;100.00;99514.56;108182;1275;22535;-76
2023/03/09 09:13:03;;;;;;;23.40;12.00;;;;;;;12.81;100.00;99532.71;107976;1271;23939;-78
2023/03/09 09:15:32;;;;;;;24.10;11.60;;;;;;;12.84;100.00;99565.59;107409;1272;22569;-78
2023/03/09 09:18:05;;;;;;;19.90;10.00;;;;;;;13.04;100.00;99587.64;107499;1267;23822;-74
2023/03/09 09:20:35;;;;;;;24.20;11.60;;;;;;;13.37;100.00;99603.13;107569;1269;24781;-72
2023/03/09 09:23:04;;;;;;;23.00;11.50;;;;;;;13.58;100.00;99630.66;106954;1270;25294;-70
2023/03/09 09:25:34;;;;;;;24.70;11.10;;;;;;;13.67;100.00;99667.87;106817;1273;22530;-67
2023/03/09 09:28:05;;;;;;;22.60;10.40;;;;;;;13.54;100.00;99706.23;106893;1269;22570;-68
2023/03/09 09:30:36;;;;;;;25.30;10.90;;;;;;;13.58;100.00;99725.95;106901;1270;22610;-73
2023/03/09 09:33:07;;;;;;;20.60;9.90;;;;;;;13.74;100.00;99730.05;107253;1258;23867;-76
2023/03/09 09:35:38;;;;;;;20.40;10.50;;;;;;;13.72;100.00;99752.16;107527;1271;25473;-76
2023/03/09 09:38:15;;;;;;;22.80;10.60;;;;;;;13.60;100.00;99762.95;107505;1268;22541;-74
2023/03/09 09:40:48;;;;;;;21.80;10.30;;;;;;;13.71;100.00;99750.66;107281;1253;24296;-69
2023/03/09 09:43:18;;;;;;;21.10;9.70;;;;;;;13.77;100.00;99744.96;106922;1268;22576;-70
2023/03/09 09:45:47;;;;;;;21.20;10.60;;;;;;;13.84;100.00;99735.02;107123;1269;23316;-70
2023/03/09 09:48:20;;;;;;;21.60;10.40;;;;;;;13.96;100.00;99725.14;107023;1269;25436;-70
2023/03/09 09:51:24;;;;;;;22.50;11.20;;;;;;;14.02;100.00;99708.52;106881;1268;25299;-70
2023/03/09 09:54:02;;;;;;;21.20;11.00;;;;;;;14.04;100.00;99691.42;106802;1269;26486;-74
2023/03/09 09:56:47;;;;;;;22.60;10.70;;;;;;;14.18;100.00;99687.45;106929;1271;24228;-74
2023/03/09 09:59:26;;;;;;;21.10;10.30;;;;;;;14.36;100.00;99676.83;107217;1269;24377;-75
2023/03/09 10:02:30;;;;;;;19.70;9.90;;;;;;;14.35;100.00;99670.70;107416;1275;22538;-76
2023/03/09 10:05:11;;;;;;;19.80;10.30;;;;;;;14.36;100.00;99653.17;107283;1275;26543;-74
2023/03/09 10:07:40;;;;;;;20.00;10.20;;;;;;;14.53;100.00;99655.60;106887;1268;25257;-76
2023/03/09 10:10:24;;;;;;;24.20;11.30;;;;;;;14.74;100.00;99653.23;107316;1267;25355;-76
2023/03/09 10:12:54;;;;;;;23.00;10.60;;;;;;;15.00;100.00;99634.65;107252;1275;22566;-75
2023/03/09 10:15:30;;;;;;;22.00;9.20;;;;;;;15.11;100.00;99632.90;107078;1269;22552;-74
2023/03/09 10:18:22;;;;;;;16.50;7.40;;;;;;;15.09;100.00;99613.20;107527;1275;22549;-77
2023/03/09 10:20:54;;;;;;;;;;;;;;;15.14;100.00;99587.34;108071;1269;23036;-75
2023/03/09 10:23:29;;;;;;;14.50;6.60;;;;;;;15.23;100.00;99587.34;107361;1269;1003125;-75
2023/03/09 10:26:20;;;;;;;14.60;6.50;;;;;;;15.32;100.00;99575.33;107178;1268;22534;-75
2023/03/09 10:28:50;;;;;;;12.70;6.30;;;;;;;15.33;100.00;99546.28;107135;1273;24231;-77
2023/03/09 10:31:39;;;;;;;13.00;6.70;;;;;;;15.38;100.00;99538.39;107169;1274;24380;-71
2023/03/09 10:34:13;;;;;;;10.10;5.30;;;;;;;15.62;100.00;99522.11;106944;1268;25355;-69
2023/03/09 10:36:48;;;;;;;11.70;5.50;;;;;;;15.65;100.00;99497.57;107092;1269;22524;-71
2023/03/09 10:39:17;;;;;;;11.50;5.00;;;;;;;15.61;100.00;99466.20;107113;1273;24213;-70
2023/03/09 10:41:45;;;;;;;9.80;5.30;;;;;;;15.66;100.00;99446.55;107134;1271;24228;-69
2023/03/09 10:44:15;;;;;;;13.50;4.70;;;;;;;15.69;100.00;99430.17;107083;1275;25465;-76
2023/03/09 10:46:58;;;;;;;13.00;5.40;;;;;;;15.83;100.00;99420.41;106788;1271;22595;-70
2023/03/09 10:49:31;;;;;;;11.70;5.00;;;;;;;15.93;100.00;99392.20;107078;1272;25557;-71
2023/03/09 10:52:06;;;;;;;14.40;5.20;;;;;;;15.95;100.00;99369.75;106957;1253;24401;-69
2023/03/09 10:54:39;;;;;;;9.70;5.00;;;;;;;15.94;100.00;99343.05;106940;1268;24265;-71
2023/03/09 10:57:33;;;;;;;9.50;4.80;;;;;;;15.96;100.00;99182.42;106970;1272;26616;-70
2023/03/09 11:00:11;;;;;;;9.60;4.40;;;;;;;16.14;100.00;98854.30;106977;1271;26537;-76
2023/03/09 11:02:54;;;;;;;13.50;5.60;;;;;;;16.40;100.00;98743.26;107117;1268;22523;-74
2023/03/09 11:05:24;;;;;;;17.80;6.40;;;;;;;16.52;100.00;98683.86;107138;1275;26474;-75
2023/03/09 11:07:55;;;;;;;13.00;5.30;;;;;;;16.67;100.00;98658.98;106980;1271;24464;-73
2023/03/09 11:10:28;;;;;;;16.50;5.00;;;;;;;16.84;100.00;98657.05;107290;1269;27198;-76
2023/03/09 11:12:59;;;;;;;;;;;;;;;16.83;100.00;98661.47;107710;1268;26641;-75
2023/03/09 11:15:29;;;;;;;10.20;4.30;;;;;;;16.62;100.00;98668.81;107456;1268;25431;-75
2023/03/09 11:17:59;;;;;;;12.10;4.70;;;;;;;16.23;100.00;98658.99;107482;1269;22760;-74
2023/03/09 11:20:33;;;;;;;11.70;3.90;;;;;;;15.95;100.00;98638.09;107399;1271;25954;-76
2023/03/09 11:23:26;;;;;;;9.80;4.50;;;;;;;15.89;100.00;98614.75;107488;1268;22920;-75
2023/03/09 11:26:08;;;;;;;18.00;6.40;;;;;;;15.96;100.00;98585.98;106892;1269;26511;-70
2023/03/09 11:28:55;;;;;;;9.90;4.40;;;;;;;16.15;100.00;98573.83;106897;1275;26500;-70
2023/03/09 11:31:26;;;;;;;10.10;4.10;;;;;;;16.39;100.00;98559.16;107038;1267;23340;-71
2023/03/09 11:33:57;;;;;;;8.40;3.80;;;;;;;16.45;100.00;98557.17;107053;1268;25360;-70
2023/03/09 11:36:32;;;;;;;10.40;4.30;;;;;;;16.56;100.00;98527.05;106920;1275;22682;-71
2023/03/09 11:39:03;;;;;;;10.10;4.20;;;;;;;16.82;100.00;98498.88;106918;1271;22537;-73
2023/03/09 11:41:38;;;;;;;7.90;3.40;;;;;;;16.97;100.00;98491.69;107114;1268;22522;-72
2023/03/09 11:44:31;;;;;;;7.40;3.70;;;;;;;16.85;100.00;98462.58;107029;1268;22528;-71
2023/03/09 11:47:05;;;;;;;9.40;4.00;;;;;;;16.84;100.00;98499.14;106820;1270;26586;-70
2023/03/09 11:49:36;;;;;;;7.00;3.60;;;;;;;17.00;100.00;98562.45;106888;1272;26494;-71
2023/03/09 11:52:05;;;;;;;9.30;4.10;;;;;;;17.24;100.00;98631.65;106736;1268;24019;-74
2023/03/09 11:54:42;;;;;;;10.80;4.60;;;;;;;17.39;100.00;98712.60;106859;1269;22612;-71
2023/03/09 11:57:13;;;;;;;14.00;4.90;;;;;;;17.29;100.00;98780.08;106785;1271;23870;-71
2023/03/09 11:59:46;;;;;;;7.70;3.50;;;;;;;17.11;100.00;98802.90;107000;1268;24266;-69
2023/03/09 12:02:50;;;;;;;8.00;3.70;;;;;;;16.92;100.00;98814.17;106858;1271;25422;-67
2023/03/09 12:05:18;;;;;;;10.30;4.10;;;;;;;16.75;100.00;98816.63;106858;1267;22521;-71
2023/03/09 12:08:19;;;;;;;10.20;5.00;;;;;;;16.74;100.00;98817.41;106921;1268;25367;-71
2023/03/09 12:10:57;;;;;;;14.50;5.00;;;;;;;16.76;100.00;98818.50;106835;1275;25550;-69
2023/03/09 12:13:30;;;;;;;7.00;3.60;;;;;;;16.89;100.00;98812.52;106928;1274;25385;-68
2023/03/09 12:16:16;;;;;;;8.90;4.00;;;;;;;16.97;100.00;98817.35;107063;1254;23185;-70
2023/03/09 12:19:09;;;;;;;18.20;5.20;;;;;;;16.93;100.00;98814.83;107351;1273;25923;-76
2023/03/09 12:21:41;;;;;;;12.10;5.10;;;;;;;16.91;100.00;98802.56;107192;1268;23902;-70
2023/03/09 12:24:17;;;;;;;16.60;5.20;;;;;;;16.78;100.00;98800.15;106741;1271;22523;-68
2023/03/09 12:26:58;;;;;;;11.80;4.80;;;;;;;16.50;100.00;98801.96;106791;1268;25410;-70
2023/03/09 12:29:32;;;;;;;9.70;4.60;;;;;;;16.26;100.00;98798.82;106887;1270;22557;-69
2023/03/09 12:32:16;;;;;;;9.70;4.50;;;;;;;16.14;100.00;98798.55;106730;1275;23263;-73
2023/03/09 12:34:49;;;;;;;7.10;4.00;;;;;;;16.08;100.00;98793.20;106988;1275;22643;-76
2023/03/09 12:37:28;;;;;;;12.50;5.40;;;;;;;16.04;100.00;98792.30;107053;1270;26483;-75
2023/03/09 12:40:00;;;;;;;12.00;4.20;;;;;;;15.94;100.00;98791.22;107026;1268;25539;-75
2023/03/09 12:42:37;;;;;;;15.00;5.00;;;;;;;15.87;100.00;98786.19;107223;1275;24278;-75
2023/03/09 12:45:12;;;;;;;12.30;5.20;;;;;;;15.85;100.00;98787.48;106878;1275;26625;-68
2023/03/09 12:48:04;;;;;;;11.60;4.50;;;;;;;15.90;100.00;98779.08;106846;1275;22619;-68
2023/03/09 12:50:41;;;;;;;9.90;4.10;;;;;;;15.92;100.00;98778.96;106886;1275;25392;-69
2023/03/09 12:53:18;;;;;;;11.90;4.60;;;;;;;15.98;100.00;98773.54;106849;1271;26640;-71
2023/03/09 12:55:53;;;;;;;9.40;4.70;;;;;;;16.03;100.00;98768.45;106837;1275;25467;-67
2023/03/09 12:58:21;;;;;;;9.00;4.20;;;;;;;16.04;100.00;98761.19;106838;1275;24282;-69
2023/03/09 13:01:10;;;;;;;11.70;4.50;;;;;;;16.05;100.00;98753.90;106944;1271;25351;-72
2023/03/09 13:04:11;;;;;;;10.20;4.40;;;;;;;16.11;100.00;98747.38;106736;1271;25344;-69
2023/03/09 13:06:55;;;;;;;7.80;4.10;;;;;;;16.19;100.00;98742.42;106983;1271;22610;-67
2023/03/09 13:09:36;;;;;;;8.60;3.90;;;;;;;16.36;100.00;98743.33;107422;1276;25424;-69
2023/03/09 13:12:15;;;;;;;5.20;3.40;;;;;;;16.51;100.00;98732.69;109147;1268;22577;-68
2023/03/09 13:14:50;;;;;;;7.40;3.30;;;;;;;16.53;100.00;98734.80;106849;1270;25427;-71
2023/03/09 13:17:26;;;;;;;8.70;4.10;;;;;;;16.48;100.00;98731.04;106829;1270;22641;-70
2023/03/09 13:19:56;;;;;;;12.20;4.90;;;;;;;16.42;100.00;98733.69;106889;1269;22621;-71
2023/03/09 13:22:26;;;;;;;15.40;4.50;;;;;;;16.36;100.00;98738.70;106685;1272;22523;-68
2023/03/09 13:25:18;;;;;;;12.30;4.00;;;;;;;16.37;100.00;98735.63;106819;1269;22653;-68
2023/03/09 13:27:47;;;;;;;6.20;3.40;;;;;;;16.50;100.00;98729.05;106845;1272;22694;-70
2023/03/09 13:30:20;;;;;;;10.20;3.70;;;;;;;16.69;100.00;98720.44;106876;1273;23855;-71
2023/03/09 13:32:55;;;;;;;13.90;4.40;;;;;;;16.80;100.00;98720.09;106850;1272;22540;-69
2023/03/09 13:35:35;;;;;;;6.70;3.70;;;;;;;16.76;100.00;98716.08;106903;1270;23882;-69
2023/03/09 13:38:04;;;;;;;8.90;3.70;;;;;;;16.70;100.00;98719.63;106941;1272;25491;-68
2023/03/09 13:40:52;;;;;;;8.90;4.20;;;;;;;16.71;100.00;98709.06;106808;1269;25373;-70
2023/03/09 13:43:29;;;;;;;11.00;3.90;;;;;;;16.69;100.00;98708.00;106825;1270;24386;-70
2023/03/09 13:46:14;;;;;;;12.00;4.10;;;;;;;16.55;100.00;98708.02;107226;1276;23645;-76
2023/03/09 13:48:48;;;;;;;9.90;4.20;;;;;;;16.37;100.00;98709.75;107454;1269;26504;-74
2023/03/09 13:51:34;;;;;;;10.10;3.90;;;;;;;16.25;100.00;98703.46;107464;1275;24038;-73
2023/03/09 13:54:30;;;;;;;7.30;3.60;;;;;;;16.24;100.00;98703.05;107352;1253;23263;-76
2023/03/09 13:57:23;;;;;;;8.50;3.60;;;;;;;16.35;100.00;98690.94;107256;1276;22546;-76
2023/03/09 13:59:54;;;;;;;12.00;3.80;;;;;;;16.51;100.00;98683.42;107205;1267;26507;-77
2023/03/09 14:02:27;;;;;;;16.70;4.10;;;;;;;16.62;100.00;98679.36;107192;1275;25525;-73
2023/03/09 14:04:57;;;;;;;12.50;3.70;;;;;;;16.72;100.00;98676.20;107374;1269;22629;-75
2023/03/09 14:07:50;;;;;;;18.60;4.80;;;;;;;16.82;100.00;98672.80;106901;1268;25419;-68
2023/03/09 14:10:35;;;;;;;11.90;3.50;;;;;;;16.92;100.00;98667.48;106810;1268;24355;-69
2023/03/09 14:13:16;;;;;;;12.90;4.10;;;;;;;17.02;100.00;98662.44;106767;1269;26523;-70
2023/03/09 14:16:06;;;;;;;9.80;4.10;;;;;;;17.04;100.00;98659.02;106806;1268;24428;-67
2023/03/09 14:18:51;;;;;;;9.90;3.90;;;;;;;17.03;100.00;98656.32;107037;1275;23923;-68
2023/03/09 14:21:23;;;;;;;18.60;6.00;;;;;;;17.05;100.00;98649.96;107019;1268;22534;-67
2023/03/09 14:23:54;;;;;;;8.30;3.40;;;;;;;17.15;100.00;98644.90;107110;1268;22743;-69
2023/03/09 14:26:27;;;;;;;12.60;5.90;;;;;;;17.15;100.00;98646.80;106946;1275;25350;-76
2023/03/09 14:29:14;;;;;;;7.50;3.70;;;;;;;17.07;100.00;98650.50;107101;1268;25882;-75
2023/03/09 14:31:43;;;;;;;6.50;3.20;;;;;;;17.00;100.00;98645.18;107169;1268;22758;-76
2023/03/09 14:34:15;;;;;;;12.50;4.20;;;;;;;16.85;100.00;98653.45;107117;1266;25464;-76
2023/03/09 14:36:58;;;;;;;6.50;3.60;;;;;;;16.72;100.00;98652.96;107134;1274;22534;-66
2023/03/09 14:39:31;;;;;;;7.50;3.80;;;;;;;16.55;100.00;98656.75;106896;1275;22533;-68
2023/03/09 14:42:06;;;;;;;10.90;4.30;;;;;;;16.33;100.00;98655.19;107014;1271;25533;-68
2023/03/09 14:44:44;;;;;;;10.10;4.40;;;;;;;16.10;100.00;98659.66;107060;1268;25960;-73
2023/03/09 14:47:17;;;;;;;10.80;4.30;;;;;;;15.87;100.00;98664.02;107093;1269;25453;-74
2023/03/09 14:49:47;;;;;;;11.00;4.40;;;;;;;15.69;100.00;98670.96;107005;1268;22568;-76
2023/03/09 14:52:18;;;;;;;13.60;4.60;;;;;;;15.56;100.00;98672.62;107184;1268;22606;-73
2023/03/09 14:54:50;;;;;;;11.60;4.30;;;;;;;15.43;100.00;98677.92;107070;1275;25450;-74
2023/03/09 14:57:18;;;;;;;10.10;3.80;;;;;;;15.30;100.00;98683.57;107004;1269;23812;-75
2023/03/09 14:59:47;;;;;;;9.00;4.30;;;;;;;15.18;100.00;98685.33;107128;1269;23854;-74
2023/03/09 15:02:16;;;;;;;9.00;4.50;;;;;;;15.05;100.00;98696.13;107154;1268;25236;-75
2023/03/09 15:04:46;;;;;;;12.10;5.00;;;;;;;14.92;100.00;98703.02;107230;1271;22512;-74
2023/03/09 15:07:17;;;;;;;11.00;4.30;;;;;;;14.80;100.00;98717.89;107069;1274;22513;-75
2023/03/09 15:09:46;;;;;;;9.40;4.30;;;;;;;14.69;100.00;98759.86;107239;1271;24325;-75
2023/03/09 15:12:19;;;;;;;12.30;4.90;;;;;;;14.60;100.00;98771.90;107102;1271;26581;-77
2023/03/09 15:14:48;;;;;;;12.70;5.20;;;;;;;14.51;100.00;98802.23;106953;1273;22531;-67
2023/03/09 15:17:19;;;;;;;12.30;5.10;;;;;;;14.40;100.00;98812.92;106933;1268;25507;-68
2023/03/09 15:19:48;;;;;;;12.40;4.80;;;;;;;14.31;100.00;98817.73;107006;1269;24050;-68
2023/03/09 15:22:22;;;;;;;12.30;4.80;;;;;;;14.21;100.00;98816.84;106830;1274;23383;-67
2023/03/09 15:24:51;;;;;;;10.80;4.50;;;;;;;14.08;100.00;98815.84;106989;1275;26721;-68
2023/03/09 15:27:20;;;;;;;9.00;3.90;;;;;;;13.97;100.00;98802.70;106971;1269;22516;-69
2023/03/09 15:29:48;;;;;;;8.90;4.30;;;;;;;13.88;100.00;98796.42;107056;1275;22523;-67
2023/03/09 15:32:17;;;;;;;10.60;4.20;;;;;;;13.80;100.00;98773.67;107178;1269;23912;-66
2023/03/09 15:34:48;;;;;;;10.90;4.40;;;;;;;13.74;100.00;98747.40;107157;1268;23215;-66
2023/03/09 15:37:17;;;;;;;12.60;4.30;;;;;;;13.66;100.00;98714.71;107169;1268;25373;-66
2023/03/09 15:39:45;;;;;;;10.00;4.40;;;;;;;13.59;100.00;98701.11;107145;1268;25571;-66
2023/03/09 15:42:14;;;;;;;6.60;4.00;;;;;;;13.52;100.00;98688.10;107124;1269;23812;-65
2023/03/09 15:44:43;;;;;;;12.60;4.50;;;;;;;13.45;100.00;98700.53;107003;1268;24323;-65
2023/03/09 15:47:11;;;;;;;11.00;4.40;;;;;;;13.38;100.00;98701.17;107921;1269;22544;-65
2023/03/09 15:49:42;;;;;;;10.70;4.50;;;;;;;13.30;100.00;98681.12;107043;1275;25367;-67
2023/03/09 15:52:15;;;;;;;11.00;4.40;;;;;;;13.21;100.00;98644.41;107013;1271;26656;-65
2023/03/09 15:54:44;;;;;;;11.00;3.90;;;;;;;13.11;100.00;98583.58;107066;1275;25362;-69
2023/03/09 15:57:12;;;;;;;8.80;4.00;;;;;;;13.03;100.00;98502.77;107002;1275;25604;-70
2023/03/09 15:59:44;;;;;;;10.20;4.20;;;;;;;12.96;100.00;98436.38;106957;1275;25419;-69
2023/03/09 16:02:13;;;;;;;7.00;3.30;;;;;;;12.90;100.00;98368.00;106953;1275;23145;-71
2023/03/09 16:04:44;;;;;;;9.10;3.50;;;;;;;12.82;100.00;98308.49;107025;1275;25239;-71
2023/03/09 16:07:12;;;;;;;6.70;3.50;;;;;;;12.74;100.00;98216.15;106986;1275;25281;-70
2023/03/09 16:09:41;;;;;;;12.30;3.90;;;;;;;12.68;100.00;98124.50;106862;1276;22635;-70
2023/03/09 16:12:10;;;;;;;6.00;3.30;;;;;;;12.62;100.00;98093.69;106782;1276;26524;-71
2023/03/09 16:14:40;;;;;;;12.70;3.70;;;;;;;12.54;100.00;98066.65;106860;1272;23668;-72
2023/03/09 16:17:08;;;;;;;12.40;4.40;;;;;;;12.47;100.00;98087.08;106962;1275;25494;-71
2023/03/09 16:19:37;;;;;;;7.10;3.70;;;;;;;12.40;100.00;98124.07;106840;1275;25536;-70
2023/03/09 16:22:07;;;;;;;9.20;3.90;;;;;;;12.32;100.00;98176.87;106940;1275;25355;-70
2023/03/09 16:24:39;;;;;;;8.60;3.90;;;;;;;12.26;100.00;98265.50;106903;1275;25432;-70
2023/03/09 16:27:08;;;;;;;9.60;3.90;;;;;;;12.22;100.00;98366.60;106854;1275;25431;-68
2023/03/09 16:29:37;;;;;;;8.80;3.50;;;;;;;12.19;100.00;98529.11;106883;1275;22518;-72
2023/03/09 16:32:05;;;;;;;8.50;3.90;;;;;;;12.14;100.00;98597.09;106956;1275;25239;-71
2023/03/09 16:34:34;;;;;;;8.30;4.10;;;;;;;12.10;100.00;98609.77;107019;1275;25239;-69
2023/03/09 16:37:04;;;;;;;9.20;3.60;;;;;;;12.07;100.00;98619.05;106864;1275;24673;-70
2023/03/09 16:39:33;;;;;;;7.50;3.40;;;;;;;12.05;100.00;98616.43;106977;1274;26511;-69
2023/03/09 16:42:02;;;;;;;12.40;3.60;;;;;;;12.05;100.00;98612.14;107075;1275;22647;-70
2023/03/09 16:44:33;;;;;;;9.30;3.50;;;;;;;12.02;100.00;98609.36;107111;1274;22521;-70
2023/03/09 16:47:04;;;;;;;9.20;3.70;;;;;;;11.99;100.00;98611.66;107137;1275;25330;-68
2023/03/09 16:49:34;;;;;;;7.00;3.70;;;;;;;11.96;100.00;98612.80;106952;1275;26523;-70
2023/03/09 16:52:05;;;;;;;8.70;3.30;;;;;;;11.94;100.00;98611.48;106952;1275;25369;-69
2023/03/09 16:54:34;;;;;;;9.50;4.00;;;;;;;11.93;100.00;98610.90;106915;1275;25298;-70
2023/03/09 16:57:03;;;;;;;13.10;4.50;;;;;;;11.91;100.00;98601.08;107021;1275;26715;-70
2023/03/09 16:59:32;;;;;;;9.00;4.10;;;;;;;11.89;100.00;98599.02;106977;1252;24283;-70
2023/03/09 17:02:02;;;;;;;14.20;4.80;;;;;;;11.85;100.00;98595.02;106997;1275;25809;-72